Good Hope, Louisiana
Current Conditions -  °F | °C
As of 3:53 AM on Tuesday 27 Jan 2015 (Local Time) from KMSY Reporting Station
Clear Clear  
Wind Chill: 44°   Ceiling: Unl
Heat Index: 47°   Visibility: 10mi
Dew Point: 40°   Wind: 7mph
Humidity: 77%   Direction: 250°WSW
Pressure: 30.07"   Gusts: NA
Location:  30.0285°N, 90.4077°W
Report Text: KMSY 270953Z 25006KT 10SM CLR 08/04 A3007 RMK AO2 SLP184 T00830044
Loading
Personal Weather Stations






























Interactive Weather Map New forecast layout! Learn more

10-Day Weather Forecast

Advertisements
Track Severe Weather on mobile